Main page
METAR-TAF:

METAR-TAF

Airports :

EuroAirport Basel Mulhouse Freiburg

Basel-Mulhouse, France

latitude: 47-36N, longitude: 007-31E, elevation: 270 m

Current weather observation

The report was made 40 minutes ago, at 01:30 UTC
Wind 4 kt from the Northwest
Temperature 16°C
Humidity 88%
Pressure 1013 hPa
Visibility 10 km or more
no clouds below 1500 m and no cumulonimbus

METAR: LFSB 250130Z AUTO 31004KT CAVOK 16/14 Q1013 NOSIG

Time: 04:10 (02:10 UTC)

Forecast

The report was made 3 hours and 10 minutes ago, at 23:00 UTC
Forecast valid from 25 at 00 UTC to 25 at 24 UTC
Wind 5 kt from the Northwest
Visibility 10 km or more
no clouds below 1500 m and no cumulonimbus
Probability 40% :
Temporary
from 25 at 13 UTC to 25 at 17 UTC
Few clouds at a height of 4500 ft, Cumulonimbus.
Probability 30% :
Temporary
from 25 at 16 UTC to 25 at 19 UTC
rain showers,

TAF: LFSB 242300Z 2500/2524 32005KT CAVOK PROB40 TEMPO 2513/2517 FEW045CB PROB30 TEMPO 2516/2519 SHRA

Weather observations and forecasts of more than 4000 airports (METAR and TAF reports).

The available stations are represented by yellow and red dots on the map.

Hover mouse over dot to see the name of the station.

Then click to see weather observations and forecasts.

To change the map : click on the green buttons with a black cross to zoom in, on the green button with a dash to zoom out, or on the green arrows for adjacent maps.


METAR-TAF: